Monroe, WI (53566)

11:24 PM CDT on May 24, 2015 (GMT -0500)
ValleyViewVet | | Change Station
CLOSE
Current Station
Personal Weather Station
Location: Monroe, WI
Elevation: 1060 ft
Nearby Weather Stations

Elev 1060 ft 42.59 °N, 89.66 °W | Updated 16 seconds ago

Overcast
Overcast
62.2 °F
Feels Like 62.2 °F
N
0.9
Wind Variable Wind from SE
Gusts 3.0 mph

Today
High -- | Low -- °F
--% Chance of Precip.
Yesterday
High -- | Low -- °F
Precip. -- in
5:28 AM 8:22 PM
Waxing Crescent, 45% visible
Pressure 29.87 in
Visibility 1.0 miles
Clouds Overcast 100 ft
Dew Point 62 °F
Humidity 98%
Rainfall 1.05 in
Snow Depth Not available.
UV 0 out of 12
Pollen 8.20 out of 12
Air Quality Not available.
Flu Activity Sporadic
METAR KEFT 250415Z AUTO 12006KT 1SM BR OVC001 16/16 A2987 RMK AO2

More Conditions Fewer Conditions

Pressure 29.87 in
Visibility 1.0 miles
Clouds Overcast 100 ft
Dew Point 62 °F
Humidity 98%
Rainfall 1.05 in
Snow Depth Not available.
UV 0 out of 12
Pollen 8.20 out of 12
Air Quality Not available.
Flu Activity Sporadic
METAR KEFT 250415Z AUTO 12006KT 1SM BR OVC001 16/16 A2987 RMK AO2

More Conditions Fewer Conditions

10-Day Weather Forecast

Almanac

Astronomy

May. 24, 2015 Rise Set
Actual Time
Civil Twilight
Nautical Twilight
Astronomical Twilight
Moon
Length of Visible Light
Length of Day
Tomorrow will be .
, % of the Moon is Illuminated

Today's Extremes

State Highs State Lows

Community

WunderPhotos

Upload Photos

1,823,953 photos uploaded!

WunderBlogs® & News

Nearby

Air Quality

  Air Quality AQ Index Pollutant
Not available.

Snow Depth

Station Depth Elevation

Earthquake Activity

City Distance Mag. Time & Date
Minimum magnitude displayed is 2.5.

Coastal Water Temperatures

Place Temperature

Stations

Nearby Weather Stations

Station Location Temp. Windchill Dew Point Humidity Wind Precip. Elev Updated Type